Terminal Aerodrome Forecast
Issued by NWS

Home | Current Version | Previous Version | Text Only | Print | Product List | Glossary On
Versions: 1 2 3 4 5 6 7 8 9 10 11 12 13
000
FTUS42 KMLB 301122
TAFSUA
TAF
KSUA 301122Z 3012/3112 18005KT P6SM SCT027
     FM301500 15009KT P6SM SCT030
     FM301700 13012KT P6SM SCT035
     FM310000 16006KT P6SM SCT040 SCT100=

USA.gov is the U.S. government's official web portal to all federal, state and local government web resources and services.